Tropical Cyclones
[Index]
Main Index Home Page Stock Weather Photos Extreme Storms Discussion Storm News and Storm Chasing Reports Tropical Cyclones / Hurricanes / Typhoons Weather Data and Links Wild Fires / Bushfires Weather Observation Techniques Weather Picture Catalogue Tornado Pictures and Reports Stock Video Footage and DVDs for sale
Season 1954-1955 Tropical Cyclone 195507 Track Map
Season 1954-1955 Summaries: [BoM-AU] [JTWC-AU] [JTWC-SIO] [JTWC-SPAC] [JTWC-SH]
<<- Previous TC | JTWC 1954-1955 Season | Next TC ->>

click for intensity scale information  Lat/long Grid: Show Hide

 Date Labels: Show Hide

Joint Typhoon Warning Centre Cyclone Data

Name: 195507
Number: 223 / 5507

05 Jan 1955 12:00 UTC to 14 Jan 1955 00:00 UTC

    date/time    lat    long     hPa   cat  kts
1955-01-05 12   16.2   159.0W                             
1955-01-05 18   16.6   158.4W                             
1955-01-06 00   17.0   158.1W                             
1955-01-06 06   17.4   158.0W                             
1955-01-06 12   17.8   157.9W                             
1955-01-06 18   18.1   157.6W                             
1955-01-07 00   18.3   157.4W                             
1955-01-07 06   18.8   157.4W                             
1955-01-07 12   19.3   157.5W                             
1955-01-07 18   19.5   157.5W                             
1955-01-08 00   19.8   157.5W                             
1955-01-08 06   20.1   157.5W                             
1955-01-08 12   20.4   157.6W                             
1955-01-08 18   20.7   157.8W                             
1955-01-09 00   21.0   158.0W                             
1955-01-09 06   21.3   158.3W                             
1955-01-09 12   21.5   158.6W                             
1955-01-09 18   21.7   158.8W                             
1955-01-10 00   21.9   159.1W                             
1955-01-10 06   22.1   159.5W                             
1955-01-10 12   22.4   159.9W                             
1955-01-10 18   22.6   160.1W                             
1955-01-11 00   22.8   160.3W                             
1955-01-11 06   23.1   160.8W                             
1955-01-11 12   23.5   161.2W                             
1955-01-11 18   23.7   161.4W                             
1955-01-12 00   23.9   161.7W                             
1955-01-12 06   24.2   162.1W                             
1955-01-12 12   24.5   162.4W                             
1955-01-12 18   24.7   162.7W                             
1955-01-13 00   25.0   162.9W                             
1955-01-13 06   25.2   163.1W                             
1955-01-13 12   25.5   163.3W                             
1955-01-13 18   25.8   163.5W                             
1955-01-14 00   26.3   163.7W                             
Winds are 1-min average.

Tropical cyclone tracks developed by Michael Bath using data from the Joint Typhoon Warning Centre Best Tracks and Google Maps.


[Australian Severe Weather index] [Copyright Notice] [Email Contacts] [Search This Site] [Privacy Policy]
Document: tropical_cyclone_195507.htm Updated: 18 September 2016